createdAt,value
2022-12-27T00:01:10.425Z,3.30
2022-12-27T00:03:38.429Z,3.30
2022-12-27T00:06:10.185Z,3.30
2022-12-27T00:08:41.950Z,3.20
2022-12-27T00:11:11.167Z,3.20
2022-12-27T00:13:40.438Z,3.20
2022-12-27T00:16:09.668Z,3.20
2022-12-27T00:18:37.706Z,3.20
2022-12-27T00:21:09.284Z,3.20
2022-12-27T00:23:38.753Z,3.20
2022-12-27T00:26:09.390Z,3.30
2022-12-27T00:28:37.594Z,3.30
2022-12-27T00:31:06.498Z,3.30
2022-12-27T00:33:35.560Z,3.30
2022-12-27T00:36:05.658Z,3.30
2022-12-27T00:38:33.854Z,3.30
2022-12-27T00:41:01.836Z,3.30
2022-12-27T00:43:31.227Z,3.30
2022-12-27T00:45:59.378Z,3.30
2022-12-27T00:48:27.447Z,3.30
2022-12-27T00:50:58.437Z,3.30
2022-12-27T00:53:26.893Z,3.30
2022-12-27T00:55:54.897Z,3.30
2022-12-27T00:58:23.038Z,3.30
2022-12-27T01:00:52.541Z,3.30
2022-12-27T01:03:21.052Z,3.30
2022-12-27T01:05:49.199Z,3.30
2022-12-27T01:08:17.269Z,3.30
2022-12-27T01:10:47.949Z,3.30
2022-12-27T01:13:18.273Z,3.30
2022-12-27T01:15:46.252Z,3.30
2022-12-27T01:18:15.575Z,3.30
2022-12-27T01:20:43.612Z,3.30
2022-12-27T01:23:13.516Z,3.30
2022-12-27T01:25:41.635Z,3.30
2022-12-27T01:28:09.614Z,3.30
2022-12-27T01:30:37.588Z,3.30
2022-12-27T01:33:05.574Z,3.20
2022-12-27T01:35:34.994Z,3.20
2022-12-27T01:38:02.973Z,3.20
2022-12-27T01:40:32.480Z,3.20
2022-12-27T01:43:02.280Z,3.20
2022-12-27T01:45:31.256Z,3.30
2022-12-27T01:48:01.648Z,3.20
2022-12-27T01:50:34.472Z,3.30
2022-12-27T01:53:07.708Z,3.30
2022-12-27T01:55:40.320Z,3.30
2022-12-27T01:58:12.638Z,3.30
2022-12-27T02:00:43.927Z,3.30
2022-12-27T02:03:12.669Z,3.30
2022-12-27T02:05:41.814Z,3.30
2022-12-27T02:08:24.690Z,3.30
2022-12-27T02:10:54.395Z,3.30
2022-12-27T02:13:22.404Z,3.30
2022-12-27T02:15:53.059Z,3.40
2022-12-27T02:18:21.124Z,3.40
2022-12-27T02:20:56.942Z,3.40
2022-12-27T02:23:51.927Z,3.40
2022-12-27T02:26:41.137Z,3.40
2022-12-27T02:29:15.735Z,3.40
2022-12-27T02:31:54.679Z,3.30
2022-12-27T02:34:24.514Z,3.40
2022-12-27T02:36:53.396Z,3.30
2022-12-27T02:39:21.642Z,3.30
2022-12-27T02:42:07.647Z,3.30
2022-12-27T02:44:55.000Z,3.30
2022-12-27T02:47:42.223Z,3.30
2022-12-27T02:50:28.837Z,3.30
2022-12-27T02:53:10.052Z,3.30
2022-12-27T02:56:13.557Z,3.30
2022-12-27T02:58:50.756Z,3.20
2022-12-27T03:01:41.842Z,3.30
2022-12-27T03:04:17.379Z,3.30
2022-12-27T03:06:55.203Z,3.30
2022-12-27T03:10:07.409Z,3.30
2022-12-27T03:13:00.249Z,3.30
2022-12-27T03:15:48.773Z,3.40
2022-12-27T03:18:21.555Z,3.50
2022-12-27T03:21:07.742Z,3.50
2022-12-27T03:23:49.905Z,3.60
2022-12-27T03:26:18.519Z,3.60
2022-12-27T03:29:04.837Z,3.70
2022-12-27T03:31:52.039Z,3.60
2022-12-27T03:34:35.878Z,3.60
2022-12-27T03:37:22.970Z,3.70
2022-12-27T03:39:54.948Z,3.70
2022-12-27T03:42:42.535Z,3.60
2022-12-27T03:45:13.296Z,3.60
2022-12-27T03:47:42.804Z,3.70
2022-12-27T03:50:18.674Z,3.60
2022-12-27T03:52:48.898Z,3.60
2022-12-27T03:55:17.478Z,3.60
2022-12-27T03:57:47.683Z,3.60
2022-12-27T04:00:15.813Z,3.60
2022-12-27T04:02:43.956Z,3.60
2022-12-27T04:05:13.458Z,3.60
2022-12-27T04:07:58.684Z,3.50
2022-12-27T04:10:46.346Z,3.50
2022-12-27T04:13:32.035Z,3.50
2022-12-27T04:16:19.494Z,3.50
2022-12-27T04:19:05.209Z,3.60
2022-12-27T04:21:52.166Z,3.60
2022-12-27T04:24:37.646Z,3.60
2022-12-27T04:27:23.176Z,3.60
2022-12-27T04:30:10.674Z,3.70
2022-12-27T04:32:55.922Z,3.70
2022-12-27T04:35:23.915Z,3.70
2022-12-27T04:37:53.237Z,3.70
2022-12-27T04:40:38.624Z,3.70
2022-12-27T04:43:24.073Z,3.70
2022-12-27T04:46:09.632Z,3.80
2022-12-27T04:48:55.160Z,3.80
2022-12-27T04:51:43.367Z,3.80
2022-12-27T04:54:33.475Z,3.80
2022-12-27T04:57:01.484Z,3.80
2022-12-27T04:59:46.963Z,3.80
2022-12-27T05:02:15.713Z,3.80
2022-12-27T05:04:44.232Z,3.80
2022-12-27T05:07:32.879Z,3.80
2022-12-27T05:10:22.326Z,3.80
2022-12-27T05:13:07.880Z,3.80
2022-12-27T05:15:35.926Z,3.80
2022-12-27T05:18:05.138Z,3.70
2022-12-27T05:20:34.791Z,3.70
2022-12-27T05:23:22.615Z,3.70
2022-12-27T05:25:51.959Z,3.70
2022-12-27T05:28:19.928Z,3.70
2022-12-27T05:30:47.900Z,3.70
2022-12-27T05:33:15.927Z,3.70
2022-12-27T05:35:43.913Z,3.70
2022-12-27T05:38:11.901Z,3.70
2022-12-27T05:40:39.864Z,3.70
2022-12-27T05:43:09.194Z,3.70
2022-12-27T05:45:37.179Z,3.70
2022-12-27T05:48:05.504Z,3.70
2022-12-27T05:50:33.502Z,3.70
2022-12-27T05:53:01.477Z,3.70
2022-12-27T05:55:29.425Z,3.70
2022-12-27T05:57:57.376Z,3.80
2022-12-27T06:00:26.815Z,3.70
2022-12-27T06:02:54.898Z,3.70
2022-12-27T06:05:22.926Z,3.70
2022-12-27T06:07:50.916Z,3.80
2022-12-27T06:10:18.935Z,3.70
2022-12-27T06:12:46.998Z,3.70
2022-12-27T06:15:15.071Z,3.70
2022-12-27T06:17:44.742Z,3.70
2022-12-27T06:20:12.766Z,3.70
2022-12-27T06:22:40.795Z,3.70
2022-12-27T06:25:13.980Z,3.70
2022-12-27T06:27:42.741Z,3.70
2022-12-27T06:30:15.347Z,3.60
2022-12-27T06:32:44.786Z,3.70
2022-12-27T06:35:19.856Z,3.60
2022-12-27T06:37:53.281Z,3.60
2022-12-27T06:40:21.948Z,3.60
2022-12-27T06:42:54.571Z,3.60
2022-12-27T06:45:22.552Z,3.70
2022-12-27T06:47:53.964Z,3.60
2022-12-27T06:50:21.926Z,3.60
2022-12-27T06:52:49.920Z,3.60
2022-12-27T06:55:17.998Z,3.60
2022-12-27T06:57:45.972Z,3.60
2022-12-27T07:00:14.458Z,3.60
2022-12-27T07:02:42.502Z,3.60
2022-12-27T07:05:11.946Z,3.60
2022-12-27T07:07:41.823Z,3.60
2022-12-27T07:10:10.258Z,3.60
2022-12-27T07:12:38.442Z,3.60
2022-12-27T07:15:07.602Z,3.60
2022-12-27T07:17:35.957Z,3.60
2022-12-27T07:20:04.217Z,3.60
2022-12-27T07:22:33.593Z,3.60
2022-12-27T07:25:01.673Z,3.60
2022-12-27T07:27:29.625Z,3.60
2022-12-27T07:29:57.628Z,3.60
2022-12-27T07:32:25.616Z,3.60
2022-12-27T07:34:53.769Z,3.60
2022-12-27T07:37:21.727Z,3.60
2022-12-27T07:39:54.100Z,3.60
2022-12-27T07:42:22.034Z,3.60
2022-12-27T07:44:50.019Z,3.60
2022-12-27T07:47:17.980Z,3.60
2022-12-27T07:49:45.963Z,3.60
2022-12-27T07:52:14.176Z,3.60
2022-12-27T07:54:43.730Z,3.50
2022-12-27T07:57:13.072Z,3.50
2022-12-27T07:59:41.145Z,3.50
2022-12-27T08:02:12.907Z,3.50
2022-12-27T08:04:40.992Z,3.50
2022-12-27T08:07:15.000Z,3.50
2022-12-27T08:09:43.947Z,3.60
2022-12-27T08:12:14.439Z,3.60
2022-12-27T08:14:42.434Z,3.60
2022-12-27T08:17:14.447Z,3.60
2022-12-27T08:19:42.398Z,3.60
2022-12-27T08:22:13.401Z,3.60
2022-12-27T08:24:41.639Z,3.70
2022-12-27T08:27:09.747Z,3.70
2022-12-27T08:29:39.241Z,3.70
2022-12-27T08:32:07.237Z,3.70
2022-12-27T08:34:35.517Z,3.80
2022-12-27T08:37:03.638Z,3.80
2022-12-27T08:39:31.624Z,3.80
2022-12-27T08:41:59.632Z,3.80
2022-12-27T08:44:28.136Z,3.90
2022-12-27T08:46:57.520Z,3.90
2022-12-27T08:49:25.549Z,3.90
2022-12-27T08:51:56.253Z,3.90
2022-12-27T08:54:24.255Z,3.90
2022-12-27T08:56:52.315Z,3.90
2022-12-27T08:59:20.294Z,3.90
2022-12-27T09:01:48.389Z,3.90
2022-12-27T09:04:17.894Z,3.90
2022-12-27T09:06:46.333Z,3.90
2022-12-27T09:09:14.587Z,3.90
2022-12-27T09:11:42.587Z,3.90
2022-12-27T09:14:13.253Z,3.90
2022-12-27T09:16:41.275Z,4.00
2022-12-27T09:19:09.205Z,3.90
2022-12-27T09:21:44.003Z,4.00
2022-12-27T09:24:13.043Z,4.00
2022-12-27T09:26:41.047Z,4.00
2022-12-27T09:29:09.147Z,4.00
2022-12-27T09:31:37.351Z,4.00
2022-12-27T09:34:05.785Z,4.00
2022-12-27T09:36:39.585Z,4.00
2022-12-27T09:39:07.947Z,4.00
2022-12-27T09:44:37.509Z,4.10
2022-12-27T09:47:09.811Z,4.10
2022-12-27T09:49:39.905Z,4.20
2022-12-27T09:52:13.902Z,4.20
2022-12-27T09:54:51.459Z,4.20
2022-12-27T09:57:22.896Z,4.20
2022-12-27T09:59:55.286Z,4.30
2022-12-27T10:02:24.101Z,4.30
2022-12-27T10:05:19.783Z,4.30
2022-12-27T10:07:50.629Z,4.30
2022-12-27T10:10:22.732Z,4.30
2022-12-27T10:13:02.139Z,4.40
2022-12-27T10:15:33.026Z,4.40
2022-12-27T10:18:09.768Z,4.40
2022-12-27T10:20:47.147Z,4.50
2022-12-27T10:23:18.237Z,4.50
2022-12-27T10:25:47.071Z,4.60
2022-12-27T10:28:17.190Z,4.60
2022-12-27T10:30:45.313Z,4.60
2022-12-27T10:33:19.519Z,4.60
2022-12-27T10:35:47.809Z,4.70
2022-12-27T10:38:17.178Z,4.70
2022-12-27T10:40:50.304Z,4.70
2022-12-27T10:43:19.628Z,4.80
2022-12-27T10:45:49.482Z,4.80
2022-12-27T10:48:20.529Z,4.80
2022-12-27T10:50:50.972Z,4.90
2022-12-27T10:53:36.951Z,4.90
2022-12-27T10:56:07.637Z,4.90
2022-12-27T10:58:38.650Z,5.00
2022-12-27T11:01:06.705Z,5.00
2022-12-27T11:03:35.414Z,5.10
2022-12-27T11:06:04.810Z,5.10
2022-12-27T11:08:33.363Z,5.20
2022-12-27T11:11:16.216Z,5.20
2022-12-27T11:13:44.509Z,5.20
2022-12-27T11:16:17.172Z,5.30
2022-12-27T11:18:47.179Z,5.30
2022-12-27T11:21:24.073Z,5.40
2022-12-27T11:23:57.454Z,5.40
2022-12-27T11:26:28.735Z,5.50
2022-12-27T11:28:58.410Z,5.50
2022-12-27T11:31:31.556Z,5.50
2022-12-27T11:34:01.305Z,5.50
2022-12-27T11:36:32.879Z,5.50
2022-12-27T11:39:01.771Z,5.50
2022-12-27T11:41:34.128Z,5.60
2022-12-27T11:44:04.791Z,5.60
2022-12-27T11:46:41.582Z,5.60
2022-12-27T11:49:15.310Z,5.60
2022-12-27T11:51:53.062Z,5.60
2022-12-27T11:54:29.925Z,5.70
2022-12-27T11:57:06.150Z,5.70
2022-12-27T11:59:38.346Z,5.80
2022-12-27T12:02:26.251Z,5.80
2022-12-27T12:05:12.274Z,5.80
2022-12-27T12:07:49.572Z,5.80
2022-12-27T12:10:21.859Z,5.80
2022-12-27T12:13:14.753Z,5.80
2022-12-27T12:16:06.643Z,5.90
2022-12-27T12:18:47.923Z,5.90
2022-12-27T12:21:25.198Z,6.10
2022-12-27T12:24:04.349Z,6.40
2022-12-27T12:26:35.207Z,6.60
2022-12-27T12:29:17.770Z,6.90
2022-12-27T12:32:09.790Z,7.00
2022-12-27T12:34:43.764Z,7.00
2022-12-27T12:37:18.844Z,7.00
2022-12-27T12:39:55.534Z,7.00
2022-12-27T12:42:29.232Z,7.20
2022-12-27T12:45:12.051Z,7.30
2022-12-27T12:47:49.457Z,7.50
2022-12-27T12:50:27.120Z,7.50
2022-12-27T12:53:09.944Z,7.40
2022-12-27T12:55:47.485Z,7.50
2022-12-27T12:58:22.262Z,7.60
2022-12-27T13:01:00.898Z,7.60
2022-12-27T13:03:46.586Z,7.50
2022-12-27T13:06:21.118Z,7.50
2022-12-27T13:08:53.845Z,7.60
2022-12-27T13:11:28.546Z,7.60
2022-12-27T13:14:04.895Z,7.70
2022-12-27T13:16:37.679Z,7.70
2022-12-27T13:19:14.257Z,7.50
2022-12-27T13:21:54.667Z,7.40
2022-12-27T13:24:29.980Z,7.40
2022-12-27T13:27:00.818Z,7.30
2022-12-27T13:29:40.331Z,7.10
2022-12-27T13:32:12.802Z,7.10
2022-12-27T13:34:45.864Z,7.10
2022-12-27T13:37:20.030Z,7.10
2022-12-27T13:39:57.828Z,7.00
2022-12-27T13:42:41.407Z,6.90
2022-12-27T13:45:19.586Z,6.90
2022-12-27T13:48:10.801Z,6.80
2022-12-27T13:50:46.180Z,6.80
2022-12-27T13:53:20.667Z,6.70
2022-12-27T13:55:55.431Z,6.60
2022-12-27T13:58:50.504Z,6.60
2022-12-27T14:01:37.992Z,6.60
2022-12-27T14:04:13.058Z,6.50
2022-12-27T14:06:58.727Z,6.50
2022-12-27T14:09:43.301Z,6.40
2022-12-27T14:12:30.479Z,6.40
2022-12-27T14:15:01.484Z,6.40
2022-12-27T14:17:31.439Z,6.40
2022-12-27T14:20:09.103Z,6.40
2022-12-27T14:22:54.423Z,6.40
2022-12-27T14:25:40.213Z,6.30
2022-12-27T14:28:27.247Z,6.30
2022-12-27T14:31:10.897Z,6.30
2022-12-27T14:33:53.801Z,6.20
2022-12-27T14:36:35.278Z,6.20
2022-12-27T14:39:18.964Z,6.20
2022-12-27T14:42:01.841Z,6.20
2022-12-27T14:44:47.616Z,6.20
2022-12-27T14:47:39.792Z,6.10
2022-12-27T14:50:22.363Z,6.10
2022-12-27T14:53:08.463Z,6.10
2022-12-27T14:55:45.260Z,6.10
2022-12-27T14:58:27.049Z,6.00
2022-12-27T15:01:03.094Z,6.00
2022-12-27T15:03:41.735Z,6.00
2022-12-27T15:06:13.671Z,5.90
2022-12-27T15:08:51.477Z,5.90
2022-12-27T15:11:34.337Z,5.80
2022-12-27T15:14:09.721Z,5.80
2022-12-27T15:16:44.383Z,5.70
2022-12-27T15:19:19.422Z,5.70
2022-12-27T15:21:57.617Z,5.70
2022-12-27T15:24:29.673Z,5.60
2022-12-27T15:27:02.331Z,5.60
2022-12-27T15:29:35.973Z,5.60
2022-12-27T15:32:11.129Z,5.60
2022-12-27T15:34:45.268Z,5.60
2022-12-27T15:37:31.933Z,5.60
2022-12-27T15:40:00.173Z,5.60
2022-12-27T15:42:41.870Z,5.60
2022-12-27T15:45:19.187Z,5.50
2022-12-27T15:48:00.615Z,5.50
2022-12-27T15:50:46.476Z,5.50
2022-12-27T15:53:28.821Z,5.40
2022-12-27T15:56:07.622Z,5.40
2022-12-27T15:58:35.868Z,5.40
2022-12-27T16:01:33.935Z,5.40
2022-12-27T16:04:23.291Z,5.40
2022-12-27T16:06:52.356Z,5.30
2022-12-27T16:09:24.155Z,5.30
2022-12-27T16:11:59.832Z,5.20
2022-12-27T16:14:30.054Z,5.20
2022-12-27T16:17:03.541Z,5.20
2022-12-27T16:20:04.810Z,5.20
2022-12-27T16:22:39.187Z,5.20
2022-12-27T16:25:25.492Z,5.20
2022-12-27T16:28:01.117Z,5.20
2022-12-27T16:30:41.336Z,5.20
2022-12-27T16:33:21.944Z,5.10
2022-12-27T16:36:03.473Z,5.10
2022-12-27T16:38:34.018Z,5.10
2022-12-27T16:41:11.615Z,5.10
2022-12-27T16:44:04.374Z,5.00
2022-12-27T16:46:51.022Z,5.00
2022-12-27T16:49:28.489Z,5.00
2022-12-27T16:52:03.931Z,5.00
2022-12-27T16:54:40.013Z,5.00
2022-12-27T16:57:22.859Z,5.00
2022-12-27T16:59:57.195Z,5.00
2022-12-27T17:02:32.704Z,5.00
2022-12-27T17:05:01.384Z,4.90
2022-12-27T17:07:46.890Z,4.90
2022-12-27T17:10:54.978Z,4.90
2022-12-27T17:13:26.856Z,4.90
2022-12-27T17:15:57.754Z,4.90
2022-12-27T17:18:28.594Z,4.90
2022-12-27T17:21:00.693Z,4.90
2022-12-27T17:23:28.943Z,4.90
2022-12-27T17:26:05.054Z,4.90
2022-12-27T17:28:36.594Z,4.80
2022-12-27T17:31:08.834Z,4.80
2022-12-27T17:33:40.988Z,4.80
2022-12-27T17:36:23.944Z,4.80
2022-12-27T17:38:56.458Z,4.80
2022-12-27T17:41:52.247Z,4.80
2022-12-27T17:44:39.330Z,4.80
2022-12-27T17:47:33.417Z,4.80
2022-12-27T17:50:02.270Z,4.80
2022-12-27T17:52:48.110Z,4.80
2022-12-27T17:55:35.130Z,4.80
2022-12-27T17:58:06.015Z,4.80
2022-12-27T18:00:34.784Z,4.80
2022-12-27T18:03:08.352Z,4.80
2022-12-27T18:05:37.740Z,4.80
2022-12-27T18:08:07.121Z,4.80
2022-12-27T18:10:36.613Z,4.80
2022-12-27T18:13:08.001Z,4.90
2022-12-27T18:15:37.573Z,4.80
2022-12-27T18:18:07.124Z,4.80
2022-12-27T18:20:36.135Z,4.80
2022-12-27T18:23:18.031Z,4.80
2022-12-27T18:25:54.496Z,4.80
2022-12-27T18:28:30.433Z,4.80
2022-12-27T18:31:03.246Z,4.80
2022-12-27T18:33:33.357Z,4.80
2022-12-27T18:36:02.494Z,4.70
2022-12-27T18:38:33.109Z,4.80
2022-12-27T18:41:02.888Z,4.70
2022-12-27T18:43:32.543Z,4.70
2022-12-27T18:46:01.291Z,4.70
2022-12-27T18:48:31.670Z,4.70
2022-12-27T18:51:00.762Z,4.70
2022-12-27T18:53:32.347Z,4.70
2022-12-27T18:56:01.332Z,4.60
2022-12-27T18:58:29.475Z,4.60
2022-12-27T19:01:00.323Z,4.60
2022-12-27T19:03:28.682Z,4.50
2022-12-27T19:06:01.766Z,4.50
2022-12-27T19:08:32.808Z,4.50
2022-12-27T19:11:00.991Z,4.50
2022-12-27T19:13:29.986Z,4.50
2022-12-27T19:15:59.959Z,4.50
2022-12-27T19:18:29.285Z,4.50
2022-12-27T19:20:58.366Z,4.50
2022-12-27T19:23:28.013Z,4.50
2022-12-27T19:26:00.073Z,4.50
2022-12-27T19:28:29.331Z,4.50
2022-12-27T19:31:17.545Z,4.50
2022-12-27T19:33:48.405Z,4.50
2022-12-27T19:36:16.421Z,4.60
2022-12-27T19:38:48.082Z,4.60
2022-12-27T19:41:19.941Z,4.60
2022-12-27T19:43:49.214Z,4.70
2022-12-27T19:46:20.253Z,4.70
2022-12-27T19:49:23.274Z,4.70
2022-12-27T19:51:38.387Z,4.80
2022-12-27T19:54:11.211Z,4.80
2022-12-27T19:56:39.218Z,4.90
2022-12-27T19:59:07.202Z,4.90
2022-12-27T20:01:35.356Z,5.00
2022-12-27T20:04:04.829Z,5.00
2022-12-27T20:06:32.879Z,5.00
2022-12-27T20:09:01.173Z,5.10
2022-12-27T20:11:29.255Z,5.10
2022-12-27T20:13:57.224Z,5.10
2022-12-27T20:16:29.502Z,5.20
2022-12-27T20:18:57.624Z,5.20
2022-12-27T20:21:27.003Z,5.30
2022-12-27T20:23:55.041Z,5.30
2022-12-27T20:26:24.187Z,5.30
2022-12-27T20:28:53.365Z,5.40
2022-12-27T20:31:22.089Z,5.40
2022-12-27T20:33:51.760Z,5.40
2022-12-27T20:36:20.961Z,5.40
2022-12-27T20:38:50.571Z,5.50
2022-12-27T20:41:19.330Z,5.50
2022-12-27T20:43:54.256Z,5.60
2022-12-27T20:46:22.358Z,5.60
2022-12-27T20:48:50.419Z,5.60
2022-12-27T20:51:19.119Z,5.60
2022-12-27T20:53:49.072Z,5.70
2022-12-27T20:56:18.650Z,5.70
2022-12-27T20:58:46.806Z,5.70
2022-12-27T21:01:15.926Z,5.80
2022-12-27T21:03:46.030Z,5.80
2022-12-27T21:06:15.254Z,5.80
2022-12-27T21:08:49.045Z,5.90
2022-12-27T21:11:22.582Z,5.90
2022-12-27T21:13:50.607Z,5.90
2022-12-27T21:16:19.206Z,6.00
2022-12-27T21:18:47.270Z,5.90
2022-12-27T21:21:18.978Z,6.00
2022-12-27T21:23:48.132Z,6.00
2022-12-27T21:26:17.130Z,6.00
2022-12-27T21:28:46.686Z,6.10
2022-12-27T21:31:15.472Z,6.00
2022-12-27T21:33:43.616Z,6.10
2022-12-27T21:36:13.595Z,6.10
2022-12-27T21:38:42.231Z,6.10
2022-12-27T21:41:12.094Z,6.20
2022-12-27T21:43:40.373Z,6.20
2022-12-27T21:46:10.624Z,6.20
2022-12-27T21:48:38.715Z,6.20
2022-12-27T21:51:07.565Z,6.20
2022-12-27T21:53:35.667Z,6.20
2022-12-27T21:56:04.011Z,6.20
2022-12-27T21:58:35.241Z,6.20
2022-12-27T22:01:08.433Z,6.20
2022-12-27T22:03:39.451Z,6.20
2022-12-27T22:06:14.133Z,6.20
2022-12-27T22:08:48.858Z,6.20
2022-12-27T22:11:17.682Z,6.20
2022-12-27T22:13:45.948Z,6.20
2022-12-27T22:16:14.974Z,6.20
2022-12-27T22:18:46.086Z,6.10
2022-12-27T22:21:15.052Z,6.10
2022-12-27T22:23:43.939Z,6.10
2022-12-27T22:26:13.232Z,6.10
2022-12-27T22:28:41.661Z,6.10
2022-12-27T22:31:10.952Z,6.00
2022-12-27T22:33:39.226Z,6.00
2022-12-27T22:36:11.198Z,6.00
2022-12-27T22:38:40.661Z,6.00
2022-12-27T22:41:10.204Z,6.00
2022-12-27T22:43:42.920Z,6.00
2022-12-27T22:46:13.666Z,5.90
2022-12-27T22:48:43.928Z,5.90
2022-12-27T22:51:18.165Z,5.90
2022-12-27T22:53:46.202Z,5.90
2022-12-27T22:56:17.829Z,5.90
2022-12-27T22:58:45.923Z,5.80
2022-12-27T23:01:14.734Z,5.80
2022-12-27T23:03:43.232Z,5.80
2022-12-27T23:06:13.514Z,5.80
2022-12-27T23:08:43.370Z,5.80
2022-12-27T23:11:13.136Z,5.80
2022-12-27T23:13:41.167Z,5.80
2022-12-27T23:16:09.551Z,5.80
2022-12-27T23:18:39.444Z,5.70
2022-12-27T23:21:21.381Z,5.70
2022-12-27T23:23:53.805Z,5.70
2022-12-27T23:26:23.047Z,5.90
2022-12-27T23:28:52.200Z,5.70
2022-12-27T23:31:23.122Z,5.70
2022-12-27T23:33:52.943Z,5.70
2022-12-27T23:36:21.116Z,5.70
2022-12-27T23:38:55.521Z,5.70
2022-12-27T23:41:25.879Z,5.70
2022-12-27T23:43:55.998Z,5.70
2022-12-27T23:46:25.676Z,5.70
2022-12-27T23:48:53.791Z,5.70
2022-12-27T23:51:21.845Z,5.70
2022-12-27T23:53:50.159Z,5.80
2022-12-27T23:56:22.815Z,5.70
2022-12-27T23:58:53.242Z,5.70
